sensor_id;sensor_type;location;lat;lon;timestamp;temperature;humidity
24632;DHT22;59977;48.782;9.190;2022-11-02T16:59:05;14.10;99.90
24632;DHT22;59977;48.782;9.190;2022-11-02T17:01:38;14.00;99.90
24632;DHT22;59977;48.782;9.190;2022-11-02T17:04:21;14.00;99.90
24632;DHT22;59977;48.782;9.190;2022-11-02T17:06:49;14.00;99.90
24632;DHT22;59977;48.782;9.190;2022-11-02T18:46:55;12.50;99.90
24632;DHT22;59977;48.782;9.190;2022-11-02T18:49:22;12.50;99.90
24632;DHT22;59977;48.782;9.190;2022-11-02T18:51:48;12.50;99.90
24632;DHT22;59977;48.782;9.190;2022-11-02T18:54:13;12.50;99.90
24632;DHT22;59977;48.782;9.190;2022-11-02T18:56:39;12.60;99.90
24632;DHT22;59977;48.782;9.190;2022-11-02T18:59:05;12.40;99.90
24632;DHT22;59977;48.782;9.190;2022-11-02T19:01:30;12.50;99.90
24632;DHT22;59977;48.782;9.190;2022-11-02T19:03:57;12.50;99.90
24632;DHT22;59977;48.782;9.190;2022-11-02T19:06:28;12.50;99.90
24632;DHT22;59977;48.782;9.190;2022-11-02T19:09:14;12.50;99.90
24632;DHT22;59977;48.782;9.190;2022-11-02T19:11:52;13.10;99.90
24632;DHT22;59977;48.782;9.190;2022-11-02T19:14:21;11.20;99.90
24632;DHT22;59977;48.782;9.190;2022-11-02T19:16:47;12.90;99.90
24632;DHT22;59977;48.782;9.190;2022-11-02T19:19:13;13.10;99.90
24632;DHT22;59977;48.782;9.190;2022-11-02T19:21:39;12.50;99.90
24632;DHT22;59977;48.782;9.190;2022-11-02T19:24:05;12.40;99.90
24632;DHT22;59977;48.782;9.190;2022-11-02T19:26:34;12.50;99.90
24632;DHT22;59977;48.782;9.190;2022-11-02T19:29:01;12.50;99.90
24632;DHT22;59977;48.782;9.190;2022-11-02T19:31:26;13.90;99.90
24632;DHT22;59977;48.782;9.190;2022-11-02T19:33:55;13.40;99.90
24632;DHT22;59977;48.782;9.190;2022-11-02T19:36:21;11.50;99.90
24632;DHT22;59977;48.782;9.190;2022-11-02T19:38:47;12.50;99.90
24632;DHT22;59977;48.782;9.190;2022-11-02T19:41:17;12.50;99.90
24632;DHT22;59977;48.782;9.190;2022-11-02T19:43:49;12.40;99.90
24632;DHT22;59977;48.782;9.190;2022-11-02T19:46:18;11.70;99.90
24632;DHT22;59977;48.782;9.190;2022-11-02T19:48:45;12.30;99.90
24632;DHT22;59977;48.782;9.190;2022-11-02T19:51:17;12.20;99.90
24632;DHT22;59977;48.782;9.190;2022-11-02T19:53:45;11.80;99.90
24632;DHT22;59977;48.782;9.190;2022-11-02T19:56:13;12.10;99.90
24632;DHT22;59977;48.782;9.190;2022-11-02T19:58:46;12.20;99.90
24632;DHT22;59977;48.782;9.190;2022-11-02T20:01:18;12.70;99.90
24632;DHT22;59977;48.782;9.190;2022-11-02T20:03:45;12.00;99.90
24632;DHT22;59977;48.782;9.190;2022-11-02T20:06:19;12.30;99.90
24632;DHT22;59977;48.782;9.190;2022-11-02T20:08:49;12.20;99.90
24632;DHT22;59977;48.782;9.190;2022-11-02T20:11:15;13.10;99.90
24632;DHT22;59977;48.782;9.190;2022-11-02T20:13:42;12.30;99.90
24632;DHT22;59977;48.782;9.190;2022-11-02T20:16:09;12.20;99.90
24632;DHT22;59977;48.782;9.190;2022-11-02T20:18:37;12.20;99.90
24632;DHT22;59977;48.782;9.190;2022-11-02T20:21:04;13.50;99.90
24632;DHT22;59977;48.782;9.190;2022-11-02T20:23:30;12.10;99.90
24632;DHT22;59977;48.782;9.190;2022-11-02T20:25:59;12.10;99.90
24632;DHT22;59977;48.782;9.190;2022-11-02T20:28:26;12.00;99.90
24632;DHT22;59977;48.782;9.190;2022-11-02T20:30:52;11.90;99.90
24632;DHT22;59977;48.782;9.190;2022-11-02T20:33:18;12.30;99.90
24632;DHT22;59977;48.782;9.190;2022-11-02T20:35:45;11.90;99.90
24632;DHT22;59977;48.782;9.190;2022-11-02T20:38:11;11.90;99.90
24632;DHT22;59977;48.782;9.190;2022-11-02T20:40:36;12.30;99.90
24632;DHT22;59977;48.782;9.190;2022-11-02T20:43:02;12.30;99.90
24632;DHT22;59977;48.782;9.190;2022-11-02T20:45:28;11.90;99.90
24632;DHT22;59977;48.782;9.190;2022-11-02T20:47:54;11.90;99.90
24632;DHT22;59977;48.782;9.190;2022-11-02T20:50:20;11.90;99.90
24632;DHT22;59977;48.782;9.190;2022-11-02T20:52:48;11.80;99.90
24632;DHT22;59977;48.782;9.190;2022-11-02T20:55:16;11.90;99.90
24632;DHT22;59977;48.782;9.190;2022-11-02T20:57:46;12.70;99.90
24632;DHT22;59977;48.782;9.190;2022-11-02T21:00:13;11.20;99.90
24632;DHT22;59977;48.782;9.190;2022-11-02T21:02:39;11.90;99.90
24632;DHT22;59977;48.782;9.190;2022-11-02T21:05:05;11.90;99.90
24632;DHT22;59977;48.782;9.190;2022-11-02T21:07:31;11.80;99.90
24632;DHT22;59977;48.782;9.190;2022-11-02T21:09:57;11.70;99.90
24632;DHT22;59977;48.782;9.190;2022-11-02T21:12:23;12.20;99.90
24632;DHT22;59977;48.782;9.190;2022-11-02T21:15:07;11.60;99.90
24632;DHT22;59977;48.782;9.190;2022-11-02T21:17:33;11.60;99.90
24632;DHT22;59977;48.782;9.190;2022-11-02T21:19:59;11.60;99.90
24632;DHT22;59977;48.782;9.190;2022-11-02T21:22:25;11.60;99.90
24632;DHT22;59977;48.782;9.190;2022-11-02T21:24:51;11.60;99.90
24632;DHT22;59977;48.782;9.190;2022-11-02T21:27:16;11.60;99.90
24632;DHT22;59977;48.782;9.190;2022-11-02T21:29:42;11.60;99.90
24632;DHT22;59977;48.782;9.190;2022-11-02T21:32:08;11.60;99.90
24632;DHT22;59977;48.782;9.190;2022-11-02T21:34:34;11.60;99.90
24632;DHT22;59977;48.782;9.190;2022-11-02T21:37:00;11.60;99.90
24632;DHT22;59977;48.782;9.190;2022-11-02T21:39:32;11.50;99.90
24632;DHT22;59977;48.782;9.190;2022-11-02T21:41:58;11.50;99.90
24632;DHT22;59977;48.782;9.190;2022-11-02T21:44:24;11.50;99.90
24632;DHT22;59977;48.782;9.190;2022-11-02T21:46:50;10.30;99.90
24632;DHT22;59977;48.782;9.190;2022-11-02T21:49:16;11.50;99.90
24632;DHT22;59977;48.782;9.190;2022-11-02T21:51:43;11.40;99.90
24632;DHT22;59977;48.782;9.190;2022-11-02T21:54:09;11.50;99.90
24632;DHT22;59977;48.782;9.190;2022-11-02T21:56:35;11.50;99.90
24632;DHT22;59977;48.782;9.190;2022-11-02T21:59:01;11.50;99.90
24632;DHT22;59977;48.782;9.190;2022-11-02T22:01:29;11.50;99.90
24632;DHT22;59977;48.782;9.190;2022-11-02T22:04:19;12.10;99.90
24632;DHT22;59977;48.782;9.190;2022-11-02T22:06:50;10.70;99.90
24632;DHT22;59977;48.782;9.190;2022-11-02T22:09:15;11.50;99.90
24632;DHT22;59977;48.782;9.190;2022-11-02T22:11:41;11.80;99.90
24632;DHT22;59977;48.782;9.190;2022-11-02T22:14:09;11.50;99.90
24632;DHT22;59977;48.782;9.190;2022-11-02T22:16:36;11.60;99.90
24632;DHT22;59977;48.782;9.190;2022-11-02T22:19:11;11.90;99.90
24632;DHT22;59977;48.782;9.190;2022-11-02T22:21:39;11.60;99.90
24632;DHT22;59977;48.782;9.190;2022-11-02T22:24:06;11.60;99.90
24632;DHT22;59977;48.782;9.190;2022-11-02T22:26:34;11.50;99.90
24632;DHT22;59977;48.782;9.190;2022-11-02T22:29:00;10.20;99.90
24632;DHT22;59977;48.782;9.190;2022-11-02T22:31:29;11.50;99.90
24632;DHT22;59977;48.782;9.190;2022-11-02T22:33:57;11.50;99.90
24632;DHT22;59977;48.782;9.190;2022-11-02T22:36:28;11.40;99.90
24632;DHT22;59977;48.782;9.190;2022-11-02T22:38:56;11.40;99.90
24632;DHT22;59977;48.782;9.190;2022-11-02T22:41:41;11.70;99.90
24632;DHT22;59977;48.782;9.190;2022-11-02T22:44:18;11.50;99.90
24632;DHT22;59977;48.782;9.190;2022-11-02T22:46:49;11.40;99.90
24632;DHT22;59977;48.782;9.190;2022-11-02T22:49:17;11.40;99.90
24632;DHT22;59977;48.782;9.190;2022-11-02T22:51:48;11.30;99.90
24632;DHT22;59977;48.782;9.190;2022-11-02T22:54:16;11.30;99.90
24632;DHT22;59977;48.782;9.190;2022-11-02T22:56:44;11.30;99.90
24632;DHT22;59977;48.782;9.190;2022-11-02T22:59:10;11.20;99.90
24632;DHT22;59977;48.782;9.190;2022-11-02T23:01:37;11.20;99.90
24632;DHT22;59977;48.782;9.190;2022-11-02T23:04:04;10.30;99.90
24632;DHT22;59977;48.782;9.190;2022-11-02T23:06:29;11.70;99.90
24632;DHT22;59977;48.782;9.190;2022-11-02T23:08:56;11.10;99.90
24632;DHT22;59977;48.782;9.190;2022-11-02T23:11:28;11.50;99.90
24632;DHT22;59977;48.782;9.190;2022-11-02T23:13:59;11.00;99.90
24632;DHT22;59977;48.782;9.190;2022-11-02T23:16:27;11.00;99.90
24632;DHT22;59977;48.782;9.190;2022-11-02T23:18:57;11.10;99.90
24632;DHT22;59977;48.782;9.190;2022-11-02T23:24:16;11.20;99.90
24632;DHT22;59977;48.782;9.190;2022-11-02T23:27:01;11.80;99.90
24632;DHT22;59977;48.782;9.190;2022-11-02T23:29:27;11.20;99.90
24632;DHT22;59977;48.782;9.190;2022-11-02T23:32:17;11.20;99.90
24632;DHT22;59977;48.782;9.190;2022-11-02T23:34:55;11.20;99.90
24632;DHT22;59977;48.782;9.190;2022-11-02T23:37:40;11.20;99.90
24632;DHT22;59977;48.782;9.190;2022-11-02T23:40:06;11.20;99.90
24632;DHT22;59977;48.782;9.190;2022-11-02T23:42:32;11.20;99.90
24632;DHT22;59977;48.782;9.190;2022-11-02T23:44:58;12.20;99.90
24632;DHT22;59977;48.782;9.190;2022-11-02T23:47:27;11.20;99.90
24632;DHT22;59977;48.782;9.190;2022-11-02T23:50:11;11.10;99.90
24632;DHT22;59977;48.782;9.190;2022-11-02T23:52:37;11.50;99.90
24632;DHT22;59977;48.782;9.190;2022-11-02T23:55:21;11.70;99.90
24632;DHT22;59977;48.782;9.190;2022-11-02T23:58:05;11.20;99.90
